createdAt,value
2018-06-19T00:00:12.516Z,10.30
2018-06-19T00:02:41.368Z,11.63
2018-06-19T00:05:10.246Z,8.63
2018-06-19T00:07:39.116Z,12.17
2018-06-19T00:10:07.985Z,8.97
2018-06-19T00:12:36.916Z,10.50
2018-06-19T00:15:05.851Z,8.47
2018-06-19T00:17:35.500Z,10.70
2018-06-19T00:20:04.498Z,10.07
2018-06-19T00:22:33.431Z,10.85
2018-06-19T00:25:02.292Z,10.30
2018-06-19T00:27:31.137Z,8.70
2018-06-19T00:30:00.005Z,8.40
2018-06-19T00:32:28.859Z,9.23
2018-06-19T00:34:57.695Z,8.53
2018-06-19T00:37:26.536Z,8.60
2018-06-19T00:39:55.386Z,8.97
2018-06-19T00:42:24.422Z,7.73
2018-06-19T00:44:53.264Z,9.47
2018-06-19T00:47:22.123Z,9.35
2018-06-19T00:49:51.017Z,8.43
2018-06-19T00:52:19.904Z,7.77
2018-06-19T00:54:48.769Z,8.10
2018-06-19T00:57:17.686Z,7.90
2018-06-19T00:59:46.550Z,9.60
2018-06-19T01:02:15.404Z,6.70
2018-06-19T01:04:44.291Z,8.45
2018-06-19T01:07:13.117Z,8.60
2018-06-19T01:09:41.992Z,9.07
2018-06-19T01:12:10.844Z,8.60
2018-06-19T01:14:39.731Z,11.80
2018-06-19T01:17:08.613Z,8.33
2018-06-19T01:19:37.484Z,12.27
2018-06-19T01:22:06.370Z,6.73
2018-06-19T01:24:35.198Z,12.97
2018-06-19T01:27:04.066Z,8.47
2018-06-19T01:29:32.946Z,10.27
2018-06-19T01:32:01.786Z,9.10
2018-06-19T01:34:30.619Z,8.17
2018-06-19T01:36:59.450Z,7.33
2018-06-19T01:39:28.280Z,10.27
2018-06-19T01:41:57.152Z,10.67
2018-06-19T01:44:25.986Z,10.97
2018-06-19T01:46:54.884Z,12.37
2018-06-19T01:49:59.672Z,9.87
2018-06-19T01:52:28.557Z,11.20
2018-06-19T01:54:57.390Z,12.50
2018-06-19T01:57:26.284Z,14.30
2018-06-19T01:59:55.144Z,12.27
2018-06-19T02:02:23.979Z,10.40
2018-06-19T02:04:52.837Z,12.33
2018-06-19T02:07:21.683Z,10.13
2018-06-19T02:09:50.548Z,11.83
2018-06-19T02:12:19.593Z,11.73
2018-06-19T02:14:48.467Z,16.40
2018-06-19T02:17:17.323Z,9.90
2018-06-19T02:19:46.204Z,12.83
2018-06-19T02:22:15.066Z,16.30
2018-06-19T02:24:43.944Z,12.83
2018-06-19T02:27:12.791Z,15.63
2018-06-19T02:29:41.653Z,10.20
2018-06-19T02:32:10.520Z,12.63
2018-06-19T02:34:39.680Z,15.77
2018-06-19T02:37:08.554Z,11.90
2018-06-19T02:39:37.415Z,12.30
2018-06-19T02:42:06.310Z,14.37
2018-06-19T02:44:35.168Z,15.40
2018-06-19T02:47:04.038Z,15.30
2018-06-19T02:49:32.889Z,17.40
2018-06-19T02:52:01.785Z,17.53
2018-06-19T02:54:31.239Z,13.97
2018-06-19T02:57:00.199Z,14.53
2018-06-19T02:59:29.067Z,19.23
2018-06-19T03:01:57.938Z,15.80
2018-06-19T03:04:26.837Z,17.90
2018-06-19T03:06:55.808Z,15.17
2018-06-19T03:09:24.731Z,17.67
2018-06-19T03:11:53.546Z,18.27
2018-06-19T03:14:22.421Z,18.10
2018-06-19T03:16:51.297Z,16.60
2018-06-19T03:19:20.207Z,16.30
2018-06-19T03:21:49.065Z,19.60
2018-06-19T03:24:17.899Z,20.57
2018-06-19T03:26:46.772Z,20.83
2018-06-19T03:29:15.660Z,16.57
2018-06-19T03:31:44.556Z,18.30
2018-06-19T03:34:13.460Z,16.73
2018-06-19T03:36:42.429Z,18.23
2018-06-19T03:39:12.168Z,21.80
2018-06-19T03:41:44.225Z,18.60
2018-06-19T03:44:13.107Z,21.17
2018-06-19T03:46:42.087Z,21.27
2018-06-19T03:49:10.981Z,19.43
2018-06-19T03:51:39.864Z,21.67
2018-06-19T03:54:08.759Z,20.03
2018-06-19T03:56:37.651Z,22.50
2018-06-19T03:59:06.536Z,21.97
2018-06-19T04:01:35.538Z,27.07
2018-06-19T04:04:04.421Z,24.87
2018-06-19T04:06:33.312Z,22.27
2018-06-19T04:09:04.944Z,27.40
2018-06-19T04:11:33.858Z,16.90
2018-06-19T04:14:02.740Z,19.60
2018-06-19T04:16:31.686Z,23.50
2018-06-19T04:19:00.626Z,26.97
2018-06-19T04:21:29.539Z,25.83
2018-06-19T04:23:58.415Z,27.27
2018-06-19T04:26:27.300Z,23.10
2018-06-19T04:28:56.154Z,23.93
2018-06-19T04:31:24.992Z,30.70
2018-06-19T04:33:53.891Z,28.77
2018-06-19T04:36:22.756Z,25.60
2018-06-19T04:38:51.624Z,31.23
2018-06-19T04:41:20.495Z,27.07
2018-06-19T04:43:49.374Z,26.20
2018-06-19T04:46:21.104Z,28.13
2018-06-19T04:48:49.999Z,30.27
2018-06-19T04:51:18.871Z,32.07
2018-06-19T04:53:47.737Z,33.83
2018-06-19T04:56:16.646Z,32.50
2018-06-19T04:58:45.432Z,32.10
2018-06-19T05:01:14.321Z,31.43
2018-06-19T05:03:43.271Z,33.53
2018-06-19T05:06:12.047Z,30.47
2018-06-19T05:08:41.025Z,30.30
2018-06-19T05:11:09.897Z,34.83
2018-06-19T05:13:38.786Z,35.93
2018-06-19T05:16:07.694Z,35.70
2018-06-19T05:18:36.574Z,32.87
2018-06-19T05:21:05.482Z,34.23
2018-06-19T05:23:34.353Z,40.87
2018-06-19T05:26:03.314Z,34.20
2018-06-19T05:28:32.166Z,43.02
2018-06-19T05:31:03.974Z,37.63
2018-06-19T05:33:32.821Z,35.10
2018-06-19T05:36:01.662Z,39.40
2018-06-19T05:38:30.522Z,42.80
2018-06-19T05:40:59.366Z,36.80
2018-06-19T05:43:28.247Z,38.17
2018-06-19T05:45:57.131Z,37.00
2018-06-19T05:48:25.999Z,38.93
2018-06-19T05:50:54.949Z,35.37
2018-06-19T05:53:26.708Z,40.30
2018-06-19T05:55:55.576Z,41.90
2018-06-19T05:58:24.429Z,41.57
2018-06-19T06:00:53.321Z,39.73
2018-06-19T06:03:22.169Z,42.33
2018-06-19T06:05:51.191Z,38.00
2018-06-19T06:08:20.022Z,40.50
2018-06-19T06:10:48.913Z,34.27
2018-06-19T06:13:17.850Z,44.60
2018-06-19T06:15:46.943Z,45.73
2018-06-19T06:18:15.830Z,45.00
2018-06-19T06:20:44.930Z,42.60
2018-06-19T06:23:13.788Z,42.53
2018-06-19T06:25:42.679Z,46.03
2018-06-19T06:28:11.510Z,46.77
2018-06-19T06:30:40.417Z,46.10
2018-06-19T06:33:09.503Z,46.70
2018-06-19T06:35:38.393Z,52.13
2018-06-19T06:38:07.237Z,50.03
2018-06-19T06:40:36.196Z,46.67
2018-06-19T06:43:05.079Z,45.53
2018-06-19T06:45:33.908Z,52.47
2018-06-19T06:48:02.795Z,44.80
2018-06-19T06:50:31.780Z,50.47
2018-06-19T06:53:00.577Z,44.30
2018-06-19T06:55:29.449Z,47.17
2018-06-19T06:57:58.502Z,50.13
2018-06-19T07:00:27.367Z,48.17
2018-06-19T07:02:56.295Z,53.53
2018-06-19T07:05:25.108Z,46.87
2018-06-19T07:07:54.008Z,52.10
2018-06-19T07:10:22.842Z,49.80
2018-06-19T07:12:51.728Z,45.07
2018-06-19T07:15:21.424Z,48.80
2018-06-19T07:17:50.377Z,52.40
2018-06-19T07:20:19.512Z,43.17
2018-06-19T07:22:48.450Z,47.47
2018-06-19T07:25:17.410Z,53.97
2018-06-19T07:27:46.332Z,46.50
2018-06-19T07:30:15.194Z,44.20
2018-06-19T07:32:44.084Z,45.57
2018-06-19T07:35:12.939Z,47.60
2018-06-19T07:37:41.928Z,55.30
2018-06-19T07:40:11.106Z,47.07
2018-06-19T07:42:40.099Z,40.93
2018-06-19T07:45:08.961Z,41.20
2018-06-19T07:47:37.836Z,46.27
2018-06-19T07:50:06.716Z,40.07
2018-06-19T07:52:35.663Z,39.50
2018-06-19T07:55:04.541Z,42.07
2018-06-19T07:57:33.396Z,37.33
2018-06-19T08:00:05.121Z,39.87
2018-06-19T08:02:33.950Z,37.53
2018-06-19T08:05:02.840Z,42.20
2018-06-19T08:07:31.737Z,37.57
2018-06-19T08:10:00.706Z,36.27
2018-06-19T08:12:29.630Z,34.63
2018-06-19T08:14:58.591Z,39.67
2018-06-19T08:17:27.465Z,35.53
2018-06-19T08:19:56.393Z,30.37
2018-06-19T08:22:25.294Z,37.38
2018-06-19T08:24:54.306Z,38.33
2018-06-19T08:27:23.169Z,34.97
2018-06-19T08:29:55.248Z,33.58
2018-06-19T08:32:24.215Z,34.30
2018-06-19T08:34:53.014Z,33.13
2018-06-19T08:37:21.909Z,30.47
2018-06-19T08:39:50.809Z,30.77
2018-06-19T08:42:19.705Z,28.17
2018-06-19T08:44:48.670Z,27.60
2018-06-19T08:47:17.597Z,31.83
2018-06-19T08:49:46.458Z,26.33
2018-06-19T08:52:15.347Z,27.27
2018-06-19T08:54:44.200Z,28.03
2018-06-19T08:57:13.424Z,26.20
2018-06-19T08:59:42.548Z,25.13
2018-06-19T09:02:11.532Z,28.57
2018-06-19T09:04:42.172Z,28.37
2018-06-19T09:07:18.444Z,26.40
2018-06-19T09:09:47.397Z,28.57
2018-06-19T09:12:16.482Z,25.17
2018-06-19T09:14:45.304Z,28.90
2018-06-19T09:17:14.495Z,27.03
2018-06-19T09:19:45.178Z,26.00
2018-06-19T09:22:14.225Z,27.63
2018-06-19T09:24:43.116Z,27.07
2018-06-19T09:27:12.063Z,29.47
2018-06-19T09:29:41.358Z,27.97
2018-06-19T09:32:11.387Z,23.90
2018-06-19T09:34:45.212Z,28.03
2018-06-19T09:37:13.798Z,25.87
2018-06-19T09:39:46.127Z,25.77
2018-06-19T09:42:19.912Z,26.27
2018-06-19T09:44:53.903Z,28.17
2018-06-19T09:47:22.557Z,24.17
2018-06-19T09:49:56.480Z,21.40
2018-06-19T09:52:29.480Z,17.80
2018-06-19T09:55:02.593Z,19.53
2018-06-19T09:57:36.558Z,16.07
2018-06-19T10:00:08.798Z,19.47
2018-06-19T10:02:38.040Z,16.33
2018-06-19T10:05:07.211Z,12.93
2018-06-19T10:07:36.078Z,15.27
2018-06-19T10:10:05.120Z,14.10
2018-06-19T10:12:37.846Z,15.77
2018-06-19T10:15:06.813Z,13.07
2018-06-19T10:17:37.741Z,15.30
2018-06-19T10:20:05.875Z,12.17
2018-06-19T10:22:40.843Z,12.23
2018-06-19T10:25:10.139Z,17.20
2018-06-19T10:27:41.380Z,17.67
2018-06-19T10:30:10.268Z,20.07
2018-06-19T10:32:39.174Z,19.27
2018-06-19T10:35:08.064Z,21.07
2018-06-19T10:37:40.013Z,23.07
2018-06-19T10:40:08.947Z,24.87
2018-06-19T10:42:37.887Z,23.67
2018-06-19T10:45:06.768Z,22.00
2018-06-19T10:47:35.722Z,24.03
2018-06-19T10:50:04.664Z,22.43
2018-06-19T10:52:33.765Z,21.67
2018-06-19T10:55:02.624Z,18.90
2018-06-19T10:57:31.559Z,16.17
2018-06-19T11:00:06.067Z,11.60
2018-06-19T11:02:36.628Z,13.77
2018-06-19T11:05:06.548Z,15.47
2018-06-19T11:07:37.985Z,11.40
2018-06-19T11:10:05.709Z,15.73
2018-06-19T11:12:35.777Z,11.77
2018-06-19T11:15:07.668Z,12.63
2018-06-19T11:17:39.026Z,11.00
2018-06-19T11:20:08.518Z,9.90
2018-06-19T11:22:37.750Z,9.63
2018-06-19T11:25:07.876Z,7.83
2018-06-19T11:27:41.084Z,6.90
2018-06-19T11:30:10.959Z,8.90
2018-06-19T11:32:45.394Z,8.53
2018-06-19T11:35:13.107Z,7.43
2018-06-19T11:37:43.913Z,5.33
2018-06-19T11:40:13.474Z,8.33
2018-06-19T11:42:42.619Z,6.87
2018-06-19T11:45:14.166Z,6.03
2018-06-19T11:47:47.019Z,4.93
2018-06-19T11:50:19.389Z,5.60
2018-06-19T11:53:01.241Z,6.97
2018-06-19T11:55:30.230Z,4.83
2018-06-19T11:58:00.069Z,4.62
2018-06-19T12:00:27.254Z,5.07
2018-06-19T12:02:56.480Z,5.80
2018-06-19T12:05:26.314Z,6.07
2018-06-19T12:08:01.572Z,5.83
2018-06-19T12:10:33.448Z,6.12
2018-06-19T12:13:02.329Z,7.03
2018-06-19T12:15:31.195Z,6.10
2018-06-19T12:18:00.131Z,6.97
2018-06-19T12:20:29.041Z,6.13
2018-06-19T12:22:57.954Z,7.57
2018-06-19T12:25:26.802Z,6.80
2018-06-19T12:27:57.335Z,9.47
2018-06-19T12:30:26.172Z,8.83
2018-06-19T12:32:55.103Z,9.23
2018-06-19T12:35:25.757Z,7.43
2018-06-19T12:37:52.835Z,7.58
2018-06-19T12:40:26.333Z,7.10
2018-06-19T12:42:55.266Z,7.93
2018-06-19T12:45:24.064Z,8.77
2018-06-19T12:47:52.947Z,8.80
2018-06-19T12:50:58.464Z,7.57
2018-06-19T12:54:03.605Z,7.47
2018-06-19T12:56:44.612Z,9.33
2018-06-19T12:59:06.978Z,9.17
2018-06-19T13:01:35.903Z,6.83
2018-06-19T13:04:41.597Z,7.70
2018-06-19T13:07:10.564Z,8.17
2018-06-19T13:09:39.576Z,6.57
2018-06-19T13:13:04.856Z,5.87
2018-06-19T13:15:33.817Z,8.27
2018-06-19T13:18:40.582Z,5.87
2018-06-19T13:21:09.452Z,6.47
2018-06-19T13:23:38.416Z,5.03
2018-06-19T13:26:07.397Z,7.50
2018-06-19T13:29:20.869Z,5.17
2018-06-19T13:31:53.219Z,8.97
2018-06-19T13:34:22.056Z,7.40
2018-06-19T13:36:50.938Z,5.45
2018-06-19T13:39:20.546Z,5.40
2018-06-19T13:42:42.001Z,5.77
2018-06-19T13:45:12.928Z,7.03
2018-06-19T13:47:44.124Z,7.23
2018-06-19T13:50:13.012Z,5.93
2018-06-19T13:52:43.402Z,6.53
2018-06-19T13:55:51.073Z,7.23
2018-06-19T13:58:24.234Z,6.17
2018-06-19T14:00:53.124Z,6.67
2018-06-19T14:03:22.022Z,7.13
2018-06-19T14:05:50.885Z,7.77
2018-06-19T14:08:54.829Z,7.33
2018-06-19T14:12:18.109Z,7.70
2018-06-19T14:14:46.925Z,7.70
2018-06-19T14:17:15.794Z,8.57
2018-06-19T14:19:58.203Z,7.78
2018-06-19T14:22:26.350Z,6.17
2018-06-19T14:24:55.447Z,7.70
2018-06-19T14:27:24.566Z,7.75
2018-06-19T14:29:53.467Z,8.73
2018-06-19T14:32:22.379Z,9.83
2018-06-19T14:35:09.097Z,6.73
2018-06-19T14:37:37.947Z,5.47
2018-06-19T14:40:06.991Z,7.47
2018-06-19T14:42:36.192Z,6.37
2018-06-19T14:45:05.843Z,6.47
2018-06-19T14:47:34.693Z,7.17
2018-06-19T14:50:03.546Z,6.57
2018-06-19T14:52:32.414Z,7.50
2018-06-19T14:55:01.327Z,7.60
2018-06-19T14:57:30.276Z,8.60
2018-06-19T14:59:59.380Z,7.40
2018-06-19T15:02:28.205Z,8.37
2018-06-19T15:04:57.079Z,8.57
2018-06-19T15:07:25.945Z,8.18
2018-06-19T15:09:54.829Z,7.17
2018-06-19T15:12:23.593Z,7.13
2018-06-19T15:14:52.468Z,8.90
2018-06-19T15:17:21.433Z,9.48
2018-06-19T15:19:53.370Z,10.63
2018-06-19T15:22:22.236Z,8.90
2018-06-19T15:24:51.100Z,9.27
2018-06-19T15:27:20.020Z,7.93
2018-06-19T15:29:48.888Z,10.67
2018-06-19T15:32:17.746Z,7.43
2018-06-19T15:34:46.594Z,6.50
2018-06-19T15:37:15.481Z,9.37
2018-06-19T15:39:45.533Z,8.25
2018-06-19T15:42:19.550Z,9.33
2018-06-19T15:44:52.295Z,11.27
2018-06-19T15:47:23.509Z,9.97
2018-06-19T15:49:57.750Z,9.40
2018-06-19T15:52:30.106Z,13.40
2018-06-19T15:55:04.661Z,10.07
2018-06-19T15:57:36.183Z,10.17
2018-06-19T16:00:05.371Z,9.83
2018-06-19T16:02:34.286Z,9.13
2018-06-19T16:05:03.272Z,9.23
2018-06-19T16:07:32.164Z,9.67
2018-06-19T16:10:01.020Z,9.43
2018-06-19T16:12:29.842Z,9.80
2018-06-19T16:14:58.865Z,12.63
2018-06-19T16:17:27.677Z,8.53
2018-06-19T16:19:56.587Z,11.23
2018-06-19T16:22:25.503Z,11.27
2018-06-19T16:24:57.133Z,11.57
2018-06-19T16:27:25.994Z,9.30
2018-06-19T16:29:54.917Z,10.17
2018-06-19T16:32:23.742Z,8.67
2018-06-19T16:34:52.622Z,9.50
2018-06-19T16:37:21.449Z,9.83
2018-06-19T16:39:50.284Z,9.30
2018-06-19T16:42:19.391Z,9.47
2018-06-19T16:44:48.282Z,8.93
2018-06-19T16:47:18.693Z,12.17
2018-06-19T16:49:50.879Z,10.40
2018-06-19T16:52:25.583Z,10.10
2018-06-19T16:54:54.647Z,9.70
2018-06-19T16:57:23.507Z,8.10
2018-06-19T16:59:52.498Z,8.47
2018-06-19T17:02:21.507Z,9.30
2018-06-19T17:04:50.385Z,8.47
2018-06-19T17:07:19.302Z,9.33
2018-06-19T17:09:48.161Z,8.30
2018-06-19T17:12:17.064Z,9.10
2018-06-19T17:14:46.243Z,7.73
2018-06-19T17:17:15.113Z,8.60
2018-06-19T17:19:43.997Z,24.63
2018-06-19T17:22:12.924Z,16.63
2018-06-19T17:24:41.847Z,9.37
2018-06-19T17:27:10.981Z,9.50
2018-06-19T17:29:41.234Z,10.53
2018-06-19T17:32:10.203Z,9.97
2018-06-19T17:34:39.094Z,9.37
2018-06-19T17:37:08.020Z,51.70
2018-06-19T17:39:36.945Z,11.10
2018-06-19T17:42:06.043Z,8.20
2018-06-19T17:44:34.960Z,8.27
2018-06-19T17:47:06.138Z,25.70
2018-06-19T17:49:40.959Z,12.23
2018-06-19T17:52:11.206Z,10.33
2018-06-19T17:54:40.124Z,9.27
2018-06-19T17:57:09.022Z,8.90
2018-06-19T17:59:41.010Z,8.20
2018-06-19T18:02:10.011Z,10.80
2018-06-19T18:04:39.746Z,9.28
2018-06-19T18:07:08.515Z,8.97
2018-06-19T18:09:39.038Z,10.23
2018-06-19T18:12:07.956Z,7.97
2018-06-19T18:14:36.899Z,12.03
2018-06-19T18:17:05.806Z,8.53
2018-06-19T18:19:34.708Z,9.50
2018-06-19T18:22:03.603Z,8.37
2018-06-19T18:24:32.498Z,10.43
2018-06-19T18:27:01.426Z,9.30
2018-06-19T18:29:30.382Z,68.30
2018-06-19T18:31:59.255Z,98.77
2018-06-19T18:34:28.212Z,15.67
2018-06-19T18:36:57.233Z,10.47
2018-06-19T18:39:26.261Z,10.60
2018-06-19T18:41:55.397Z,10.28
2018-06-19T18:44:24.255Z,8.57
2018-06-19T18:46:56.017Z,9.33
2018-06-19T18:49:29.753Z,10.90
2018-06-19T18:52:09.373Z,11.07
2018-06-19T18:54:36.327Z,12.47
2018-06-19T18:57:05.356Z,12.97
2018-06-19T18:59:39.178Z,12.00
2018-06-19T19:02:08.148Z,12.23
2018-06-19T19:04:37.138Z,8.97
2018-06-19T19:07:09.052Z,17.00
2018-06-19T19:09:38.098Z,12.47
2018-06-19T19:12:10.160Z,12.87
2018-06-19T19:14:56.986Z,19.73
2018-06-19T19:17:43.727Z,16.47
2018-06-19T19:20:12.629Z,12.03
2018-06-19T19:22:41.497Z,12.97
2018-06-19T19:25:10.446Z,14.17
2018-06-19T19:27:57.474Z,14.40
2018-06-19T19:30:26.350Z,16.27
2018-06-19T19:32:55.489Z,11.43
2018-06-19T19:35:24.471Z,15.63
2018-06-19T19:38:11.054Z,11.23
2018-06-19T19:40:43.018Z,10.37
2018-06-19T19:43:11.948Z,12.23
2018-06-19T19:45:43.570Z,10.53
2018-06-19T19:48:30.381Z,11.50
2018-06-19T19:50:59.807Z,10.13
2018-06-19T19:53:31.948Z,10.87
2018-06-19T19:56:18.448Z,10.40
2018-06-19T19:58:51.056Z,11.40
2018-06-19T20:01:19.988Z,9.40
2018-06-19T20:03:49.231Z,9.35
2018-06-19T20:06:18.204Z,12.17
2018-06-19T20:08:47.157Z,15.30
2018-06-19T20:11:16.095Z,15.27
2018-06-19T20:13:45.358Z,10.17
2018-06-19T20:16:14.268Z,7.40
2018-06-19T20:18:43.394Z,15.13
2018-06-19T20:21:12.466Z,9.67
2018-06-19T20:23:41.480Z,13.00
2018-06-19T20:26:10.383Z,10.40
2018-06-19T20:28:39.259Z,9.03
2018-06-19T20:31:08.196Z,8.40
2018-06-19T20:33:37.142Z,9.53
2018-06-19T20:37:02.701Z,14.43
2018-06-19T20:39:29.551Z,9.53
2018-06-19T20:41:58.483Z,11.10
2018-06-19T20:44:27.439Z,13.27
2018-06-19T20:46:56.269Z,14.20
2018-06-19T20:49:25.231Z,11.13
2018-06-19T20:51:54.231Z,35.50
2018-06-19T20:54:23.233Z,13.50
2018-06-19T20:56:54.508Z,14.33
2018-06-19T20:59:23.570Z,11.77
2018-06-19T21:01:52.570Z,14.20
2018-06-19T21:04:24.756Z,12.63
2018-06-19T21:06:53.855Z,12.57
2018-06-19T21:09:24.669Z,11.50
2018-06-19T21:11:51.993Z,10.73
2018-06-19T21:14:20.924Z,14.07
2018-06-19T21:16:49.961Z,10.20
2018-06-19T21:19:25.027Z,12.53
2018-06-19T21:21:54.131Z,11.30
2018-06-19T21:24:24.896Z,12.80
2018-06-19T21:26:52.391Z,12.33
2018-06-19T21:29:21.450Z,10.67
2018-06-19T21:31:50.391Z,11.13
2018-06-19T21:34:19.368Z,12.87
2018-06-19T21:36:48.394Z,18.10
2018-06-19T21:39:17.443Z,10.73
2018-06-19T21:41:46.394Z,12.23
2018-06-19T21:44:15.305Z,10.17
2018-06-19T21:46:44.800Z,11.30
2018-06-19T21:49:16.453Z,11.33
2018-06-19T21:51:47.924Z,10.97
2018-06-19T21:54:17.765Z,9.70
2018-06-19T21:56:46.750Z,12.37
2018-06-19T21:59:15.657Z,9.97
2018-06-19T22:01:44.671Z,12.03
2018-06-19T22:04:13.540Z,10.67
2018-06-19T22:06:42.466Z,9.70
2018-06-19T22:09:11.731Z,8.30
2018-06-19T22:11:41.002Z,8.83
2018-06-19T22:14:10.132Z,9.33
2018-06-19T22:16:39.105Z,8.63
2018-06-19T22:19:08.047Z,13.17
2018-06-19T22:21:38.160Z,11.40
2018-06-19T22:24:07.136Z,12.17
2018-06-19T22:26:36.041Z,15.57
2018-06-19T22:29:05.044Z,13.33
2018-06-19T22:31:34.032Z,11.30
2018-06-19T22:34:05.431Z,8.87
2018-06-19T22:36:34.481Z,9.80
2018-06-19T22:39:03.840Z,9.83
2018-06-19T22:41:32.761Z,10.50
2018-06-19T22:44:01.909Z,12.43
2018-06-19T22:46:30.748Z,9.83
2018-06-19T22:49:00.564Z,8.97
2018-06-19T22:51:31.912Z,14.43
2018-06-19T22:54:02.047Z,13.37
2018-06-19T22:56:32.960Z,10.17
2018-06-19T22:58:59.838Z,13.43
2018-06-19T23:01:28.812Z,12.07
2018-06-19T23:03:57.738Z,11.07
2018-06-19T23:06:26.652Z,11.33
2018-06-19T23:08:55.632Z,10.97
2018-06-19T23:11:24.534Z,10.03
2018-06-19T23:13:53.510Z,11.67
2018-06-19T23:16:22.433Z,9.23
2018-06-19T23:18:51.354Z,12.93
2018-06-19T23:21:20.224Z,11.60
2018-06-19T23:23:50.811Z,12.60
2018-06-19T23:26:19.728Z,10.37
2018-06-19T23:28:48.624Z,12.57
2018-06-19T23:31:17.622Z,13.23
2018-06-19T23:33:46.524Z,16.90
2018-06-19T23:36:15.418Z,13.07
2018-06-19T23:38:44.426Z,14.13
2018-06-19T23:41:13.381Z,14.87
2018-06-19T23:43:42.403Z,15.67
2018-06-19T23:46:11.386Z,14.07
2018-06-19T23:48:40.964Z,14.07
2018-06-19T23:51:10.877Z,12.60
2018-06-19T23:53:39.755Z,15.40
2018-06-19T23:56:08.688Z,14.70
2018-06-19T23:58:37.737Z,13.80
